Gulf Breeze, FL (32561)

6:59 AM CST on February 08, 2016 (GMT -0600)
Woodlawn Beach Middle School WeatherSTEM | | Change Station
CLOSE
Current Station
Personal Weather Station
Location: Gulf Breeze, FL
Elevation: 42 ft
Nearby Weather Stations
Active Advisory: Wind Advisory

Elev 42 ft 30.39 °N, 87.01 °W | Updated 14 minutes ago

Clear
Clear
47.9 °F
Feels Like 44 °F
N
8.0
Wind Variable Wind from SW
Gusts 11.0 mph

Today
High -- | Low -- °F
--% Chance of Precip.
Yesterday
High -- | Low -- °F
Precip. -- in
Pressure 30.04 in
Visibility 10.0 miles
Clouds Clear
Windchill 44 °F
Dew Point 40 °F
Humidity 74%
Rainfall 0.00 in
Snow Depth Not available.
6:34 AM 5:30 PM
Waning Crescent, 0% visible
METAR KPNS 081253Z 25008KT 10SM CLR 08/03 A3003 RMK AO2 SLP173 T00780028
Pressure 30.04 in
Visibility 10.0 miles
Clouds Clear
Windchill 44 °F
Dew Point 40 °F
Humidity 74%
Rainfall 0.00 in
Snow Depth Not available.
6:34 AM 5:30 PM
Waning Crescent, 0% visible
METAR KPNS 081253Z 25008KT 10SM CLR 08/03 A3003 RMK AO2 SLP173 T00780028

10-Day Weather Forecast

Almanac

Astronomy

Feb. 08, 2016 Rise Set
Actual Time
Civil Twilight
Nautical Twilight
Astronomical Twilight
Moon
Length of Visible Light
Length of Day
Tomorrow will be .
, % of the Moon is Illuminated

Today's Extremes

State Highs State Lows

Community

WunderPhotos

Upload Photos

1,891,428 photos uploaded!

WunderBlog® & News

Nearby

Air Quality

  Air Quality AQ Index Pollutant
Not available.

Snow Depth

Station Depth Elevation

Earthquake Activity

City Distance Mag. Time & Date
Minimum magnitude displayed is 2.5.

Coastal Water Temperatures

Place Temperature

Stations

Nearby Weather Stations

Station Location Temp. Windchill Dew Point Humidity Wind Precip. Elev Updated Type
                   

Watches & Warnings

Wind Advisory
Issued: 6:27 AM CST Feb. 8, 2016 – National Weather Service

... Wind Advisory remains in effect from noon today to 6 am CST
Tuesday...

* timing... this afternoon through tonight.

* Winds... northwest and increasing to 25 to 30 mph with frequent
higher gusts in excess of 35 mph likely.

Precautionary/preparedness actions...

A Wind Advisory means that winds of 30 to 39 mph are expected.
Winds this strong can make driving difficult... especially for
high profile vehicles. Use extra caution.